createdAt,value
2022-10-24T00:00:23.964Z,14.94
2022-10-24T00:02:50.549Z,14.94
2022-10-24T00:05:17.144Z,14.97
2022-10-24T00:07:43.969Z,15.00
2022-10-24T00:10:13.644Z,15.01
2022-10-24T00:12:40.390Z,15.04
2022-10-24T00:15:07.594Z,15.04
2022-10-24T00:17:34.640Z,15.04
2022-10-24T00:20:01.634Z,15.02
2022-10-24T00:22:28.487Z,14.99
2022-10-24T00:24:55.012Z,14.97
2022-10-24T00:27:21.504Z,14.95
2022-10-24T00:29:47.924Z,14.93
2022-10-24T00:32:14.605Z,14.87
2022-10-24T00:34:41.751Z,14.84
2022-10-24T00:37:08.194Z,14.81
2022-10-24T00:39:34.695Z,14.80
2022-10-24T00:42:01.160Z,14.76
2022-10-24T00:44:30.980Z,14.74
2022-10-24T00:47:03.477Z,14.73
2022-10-24T00:49:38.268Z,14.70
2022-10-24T00:52:08.281Z,14.69
2022-10-24T00:54:36.184Z,14.67
2022-10-24T00:57:15.372Z,14.69
2022-10-24T00:59:45.146Z,14.72
2022-10-24T01:02:12.141Z,14.72
2022-10-24T01:04:38.798Z,14.75
2022-10-24T01:07:25.850Z,14.80
2022-10-24T01:10:04.133Z,14.81
2022-10-24T01:12:51.842Z,14.81
2022-10-24T01:15:23.714Z,14.78
2022-10-24T01:18:02.249Z,14.78
2022-10-24T01:20:42.807Z,14.80
2022-10-24T01:23:15.287Z,14.78
2022-10-24T01:25:51.730Z,14.82
2022-10-24T01:28:28.765Z,14.84
2022-10-24T01:31:10.153Z,14.86
2022-10-24T01:33:43.482Z,14.88
2022-10-24T01:36:21.027Z,14.91
2022-10-24T01:39:00.710Z,14.94
2022-10-24T01:41:30.845Z,14.94
2022-10-24T01:44:05.181Z,14.96
2022-10-24T01:46:43.653Z,14.93
2022-10-24T01:49:15.840Z,14.90
2022-10-24T01:51:45.770Z,14.86
2022-10-24T01:54:14.566Z,14.87
2022-10-24T01:56:40.979Z,14.85
2022-10-24T01:59:30.450Z,14.85
2022-10-24T02:02:12.650Z,14.87
2022-10-24T02:04:46.245Z,14.92
2022-10-24T02:07:14.060Z,14.92
2022-10-24T02:09:43.705Z,14.97
2022-10-24T02:12:14.777Z,14.99
2022-10-24T02:14:47.583Z,15.02
2022-10-24T02:17:14.380Z,15.03
2022-10-24T02:19:41.229Z,15.05
2022-10-24T02:22:25.905Z,15.08
2022-10-24T02:24:58.012Z,15.11
2022-10-24T02:27:29.155Z,15.08
2022-10-24T02:30:02.886Z,15.08
2022-10-24T02:32:33.816Z,15.08
2022-10-24T02:35:02.519Z,15.06
2022-10-24T02:37:31.195Z,15.05
2022-10-24T02:40:00.456Z,15.03
2022-10-24T02:44:56.850Z,14.99
2022-10-24T02:47:26.946Z,14.96
2022-10-24T02:49:54.229Z,14.92
2022-10-24T02:52:21.329Z,14.92
2022-10-24T02:54:47.776Z,14.92
2022-10-24T02:57:15.181Z,14.88
2022-10-24T02:59:41.666Z,14.89
2022-10-24T03:02:08.478Z,14.91
2022-10-24T03:04:34.877Z,14.91
2022-10-24T03:07:01.375Z,14.84
2022-10-24T03:09:27.756Z,14.83
2022-10-24T03:11:54.187Z,14.82
2022-10-24T03:14:20.657Z,14.78
2022-10-24T03:16:47.107Z,14.76
2022-10-24T03:19:13.527Z,14.72
2022-10-24T03:21:40.889Z,14.71
2022-10-24T03:26:34.888Z,14.69
2022-10-24T03:29:01.379Z,14.68
2022-10-24T03:31:28.256Z,14.67
2022-10-24T03:33:54.685Z,14.66
2022-10-24T03:36:21.124Z,14.61
2022-10-24T03:38:47.632Z,14.59
2022-10-24T03:41:14.140Z,14.59
2022-10-24T03:43:40.567Z,14.59
2022-10-24T03:46:07.212Z,14.61
2022-10-24T03:48:33.634Z,14.66
2022-10-24T03:51:00.135Z,14.67
2022-10-24T03:53:26.602Z,14.66
2022-10-24T03:55:52.993Z,14.69
2022-10-24T03:58:19.445Z,14.75
2022-10-24T04:00:45.913Z,14.79
2022-10-24T04:03:12.346Z,14.81
2022-10-24T04:08:11.484Z,14.84
2022-10-24T04:10:37.943Z,14.87
2022-10-24T04:13:04.429Z,14.87
2022-10-24T04:15:31.190Z,14.92
2022-10-24T04:17:57.685Z,14.91
2022-10-24T04:20:24.162Z,14.87
2022-10-24T04:22:50.628Z,14.82
2022-10-24T04:25:17.542Z,14.78
2022-10-24T04:27:44.041Z,14.80
2022-10-24T04:30:16.390Z,14.80
2022-10-24T04:32:44.154Z,14.86
2022-10-24T04:35:11.296Z,14.94
2022-10-24T04:37:37.783Z,14.98
2022-10-24T04:40:07.869Z,14.97
2022-10-24T04:42:34.363Z,15.01
2022-10-24T04:45:00.862Z,15.05
2022-10-24T04:47:28.317Z,15.05
2022-10-24T04:49:54.836Z,15.06
2022-10-24T04:52:21.276Z,15.07
2022-10-24T04:54:47.705Z,15.08
2022-10-24T04:57:14.225Z,15.09
2022-10-24T04:59:40.639Z,15.11
2022-10-24T05:02:07.267Z,15.10
2022-10-24T05:04:33.939Z,15.07
2022-10-24T05:07:00.446Z,15.08
2022-10-24T05:09:26.955Z,15.14
2022-10-24T05:11:57.301Z,15.14
2022-10-24T05:14:24.599Z,15.16
2022-10-24T05:16:51.090Z,15.14
2022-10-24T05:19:17.821Z,15.09
2022-10-24T05:21:44.277Z,15.12
2022-10-24T05:24:11.308Z,15.11
2022-10-24T05:26:37.779Z,15.08
2022-10-24T05:29:04.319Z,15.06
2022-10-24T05:33:58.075Z,15.08
2022-10-24T05:36:24.857Z,15.15
2022-10-24T05:38:51.357Z,15.17
2022-10-24T05:41:17.756Z,15.16
2022-10-24T05:43:44.194Z,15.18
2022-10-24T05:46:10.674Z,15.22
2022-10-24T05:48:37.148Z,15.21
2022-10-24T05:51:04.002Z,15.25
2022-10-24T05:53:30.430Z,15.28
2022-10-24T05:55:56.920Z,15.27
2022-10-24T05:58:23.399Z,15.31
2022-10-24T06:00:53.898Z,15.30
2022-10-24T06:03:20.947Z,15.29
2022-10-24T06:05:47.419Z,15.27
2022-10-24T06:08:13.936Z,15.28
2022-10-24T06:10:40.505Z,15.26
2022-10-24T06:13:07.133Z,15.18
2022-10-24T06:15:33.598Z,15.18
2022-10-24T06:18:00.692Z,15.18
2022-10-24T06:20:27.370Z,15.18
2022-10-24T06:22:53.979Z,15.22
2022-10-24T06:25:20.511Z,15.23
2022-10-24T06:27:46.992Z,15.23
2022-10-24T06:30:13.489Z,15.24
2022-10-24T06:32:43.753Z,15.25
2022-10-24T06:35:13.430Z,15.26
2022-10-24T06:37:41.863Z,15.28
2022-10-24T06:40:11.353Z,15.29
2022-10-24T06:42:37.960Z,15.30
2022-10-24T06:45:05.036Z,15.32
2022-10-24T06:47:32.388Z,15.29
2022-10-24T06:49:58.829Z,15.31
2022-10-24T06:52:25.396Z,15.33
2022-10-24T06:54:51.820Z,15.33
2022-10-24T06:57:18.279Z,15.35
2022-10-24T06:59:44.964Z,15.36
2022-10-24T07:02:15.599Z,15.32
2022-10-24T07:04:42.652Z,15.35
2022-10-24T07:07:17.648Z,15.37
2022-10-24T07:09:44.516Z,15.39
2022-10-24T07:12:11.916Z,15.46
2022-10-24T07:14:38.425Z,15.51
2022-10-24T07:17:06.249Z,15.46
2022-10-24T07:19:36.523Z,15.45
2022-10-24T07:22:04.264Z,15.46
2022-10-24T07:24:30.939Z,15.50
2022-10-24T07:26:57.525Z,15.55
2022-10-24T07:29:24.396Z,15.64
2022-10-24T07:31:50.806Z,15.72
2022-10-24T07:34:17.609Z,15.76
2022-10-24T07:36:44.207Z,15.81
2022-10-24T07:39:12.171Z,15.84
2022-10-24T07:41:41.310Z,15.83
2022-10-24T07:44:08.997Z,15.82
2022-10-24T07:46:35.496Z,15.82
2022-10-24T07:49:01.958Z,15.82
2022-10-24T07:51:29.751Z,15.83
2022-10-24T07:53:59.657Z,15.85
2022-10-24T07:56:26.776Z,15.85
2022-10-24T07:58:53.368Z,15.89
2022-10-24T08:01:22.749Z,15.92
2022-10-24T08:03:49.912Z,15.94
2022-10-24T08:06:19.578Z,15.93
2022-10-24T08:08:46.449Z,15.91
2022-10-24T08:11:18.957Z,15.93
2022-10-24T08:13:45.473Z,15.95
2022-10-24T08:16:14.106Z,15.95
2022-10-24T08:18:40.738Z,16.01
2022-10-24T08:21:10.226Z,16.03
2022-10-24T08:23:39.399Z,16.01
2022-10-24T08:26:08.039Z,15.98
2022-10-24T08:28:35.350Z,15.98
2022-10-24T08:31:04.775Z,15.99
2022-10-24T08:33:31.846Z,16.00
2022-10-24T08:36:00.885Z,16.05
2022-10-24T08:38:28.634Z,16.08
2022-10-24T08:40:56.101Z,16.09
2022-10-24T08:43:23.723Z,16.10
2022-10-24T08:45:59.562Z,16.13
2022-10-24T08:48:34.648Z,16.13
2022-10-24T08:51:36.682Z,16.11
2022-10-24T08:54:04.851Z,16.14
2022-10-24T08:56:33.923Z,16.15
2022-10-24T08:59:02.747Z,16.19
2022-10-24T09:01:35.766Z,16.28
2022-10-24T09:04:07.509Z,16.27
2022-10-24T09:06:34.076Z,16.27
2022-10-24T09:09:12.708Z,16.26
2022-10-24T09:12:02.412Z,16.22
2022-10-24T09:14:31.920Z,16.18
2022-10-24T09:17:06.233Z,16.16
2022-10-24T09:19:32.942Z,16.16
2022-10-24T09:22:01.242Z,16.15
2022-10-24T09:24:33.962Z,16.17
2022-10-24T09:27:04.480Z,16.16
2022-10-24T09:29:33.337Z,16.25
2022-10-24T09:32:01.168Z,16.32
2022-10-24T09:34:27.837Z,16.26
2022-10-24T09:36:54.410Z,16.22
2022-10-24T09:39:23.881Z,16.22
2022-10-24T09:41:50.622Z,16.24
2022-10-24T09:44:36.454Z,16.24
2022-10-24T09:47:06.638Z,16.12
2022-10-24T09:49:36.817Z,16.01
2022-10-24T09:52:25.542Z,15.91
2022-10-24T09:55:20.440Z,15.81
2022-10-24T09:57:47.609Z,15.73
2022-10-24T10:00:40.796Z,15.66
2022-10-24T10:03:23.552Z,15.60
2022-10-24T10:05:54.492Z,15.55
2022-10-24T10:08:27.108Z,15.67
2022-10-24T10:11:14.077Z,15.66
2022-10-24T10:13:53.016Z,15.71
2022-10-24T10:16:39.754Z,15.77
2022-10-24T10:19:20.284Z,15.78
2022-10-24T10:22:03.510Z,15.81
2022-10-24T10:24:38.459Z,15.93
2022-10-24T10:27:24.260Z,15.96
2022-10-24T10:30:08.326Z,16.11
2022-10-24T10:33:16.270Z,16.32
2022-10-24T10:35:52.302Z,16.37
2022-10-24T10:38:47.685Z,16.38
2022-10-24T10:41:35.467Z,16.38
2022-10-24T10:44:27.146Z,16.46
2022-10-24T10:46:53.544Z,16.51
2022-10-24T10:49:31.857Z,16.61
2022-10-24T10:52:10.667Z,16.66
2022-10-24T10:54:55.897Z,16.55
2022-10-24T10:57:29.997Z,16.50
2022-10-24T11:00:25.351Z,16.38
2022-10-24T11:03:06.437Z,16.31
2022-10-24T11:06:06.021Z,16.35
2022-10-24T11:08:59.351Z,16.42
2022-10-24T11:11:32.419Z,16.41
2022-10-24T11:14:22.428Z,16.45
2022-10-24T11:16:50.891Z,16.52
2022-10-24T11:19:34.300Z,16.56
2022-10-24T11:22:04.445Z,16.60
2022-10-24T11:27:50.038Z,16.86
2022-10-24T11:30:19.127Z,16.90
2022-10-24T11:32:57.445Z,16.84
2022-10-24T11:35:37.228Z,16.75
2022-10-24T11:38:18.444Z,16.62
2022-10-24T11:40:51.668Z,16.53
2022-10-24T11:43:33.542Z,16.37
2022-10-24T11:46:12.607Z,16.07
2022-10-24T11:48:50.010Z,15.77
2022-10-24T11:51:25.693Z,15.81
2022-10-24T11:54:04.809Z,15.94
2022-10-24T11:56:40.145Z,16.04
2022-10-24T11:59:12.214Z,15.97
2022-10-24T12:02:16.383Z,15.87
2022-10-24T12:05:07.137Z,15.89
2022-10-24T12:07:36.657Z,15.93
2022-10-24T12:10:15.519Z,15.92
2022-10-24T12:13:06.808Z,16.01
2022-10-24T12:15:34.605Z,16.09
2022-10-24T12:18:13.619Z,16.12
2022-10-24T12:20:41.529Z,16.17
2022-10-24T12:23:18.048Z,16.15
2022-10-24T12:25:47.360Z,16.13
2022-10-24T12:28:25.745Z,16.02
2022-10-24T12:31:10.284Z,16.04
2022-10-24T12:33:36.978Z,16.08
2022-10-24T12:36:03.630Z,16.11
2022-10-24T12:38:30.039Z,16.19
2022-10-24T12:41:33.742Z,16.18
2022-10-24T12:44:34.304Z,16.29
2022-10-24T12:47:16.944Z,16.50
2022-10-24T12:49:43.408Z,16.61
2022-10-24T12:52:42.038Z,16.56
2022-10-24T12:55:39.727Z,16.48
2022-10-24T12:58:25.410Z,16.39
2022-10-24T13:01:01.722Z,16.33
2022-10-24T13:03:53.379Z,16.26
2022-10-24T13:07:01.657Z,16.14
2022-10-24T13:09:30.961Z,15.92
2022-10-24T13:12:12.163Z,15.78
2022-10-24T13:15:12.746Z,15.72
2022-10-24T13:18:12.066Z,15.65
2022-10-24T13:20:42.474Z,15.58
2022-10-24T13:23:18.179Z,15.53
2022-10-24T13:25:45.530Z,15.49
2022-10-24T13:28:22.347Z,15.50
2022-10-24T13:30:53.254Z,15.48
2022-10-24T13:33:28.930Z,15.56
2022-10-24T13:36:14.781Z,15.55
2022-10-24T13:38:54.659Z,15.56
2022-10-24T13:41:41.863Z,15.64
2022-10-24T13:44:21.960Z,15.67
2022-10-24T13:47:13.822Z,15.76
2022-10-24T13:49:50.731Z,15.88
2022-10-24T13:52:23.165Z,15.86
2022-10-24T13:54:57.680Z,15.81
2022-10-24T13:57:33.932Z,15.74
2022-10-24T14:00:08.449Z,15.71
2022-10-24T14:02:40.173Z,15.61
2022-10-24T14:05:07.346Z,15.60
2022-10-24T14:07:34.104Z,15.60
2022-10-24T14:10:09.378Z,15.60
2022-10-24T14:12:39.294Z,15.67
2022-10-24T14:15:06.877Z,15.66
2022-10-24T14:17:35.767Z,15.63
2022-10-24T14:20:21.056Z,15.65
2022-10-24T14:22:47.928Z,15.71
2022-10-24T14:25:33.059Z,15.70
2022-10-24T14:28:02.593Z,15.68
2022-10-24T14:30:34.556Z,15.68
2022-10-24T14:33:13.429Z,15.61
2022-10-24T14:35:40.222Z,15.56
2022-10-24T14:38:09.627Z,15.60
2022-10-24T14:40:36.602Z,15.65
2022-10-24T14:43:03.419Z,15.65
2022-10-24T14:45:31.061Z,15.64
2022-10-24T14:48:00.562Z,15.67
2022-10-24T14:50:47.231Z,15.71
2022-10-24T14:53:28.235Z,15.78
2022-10-24T14:55:57.986Z,15.78
2022-10-24T14:58:30.371Z,15.82
2022-10-24T15:00:58.418Z,15.80
2022-10-24T15:03:26.799Z,15.76
2022-10-24T15:05:58.973Z,15.76
2022-10-24T15:08:36.345Z,15.76
2022-10-24T15:11:18.328Z,15.79
2022-10-24T15:13:50.880Z,15.80
2022-10-24T15:16:31.623Z,15.78
2022-10-24T15:18:58.604Z,15.77
2022-10-24T15:21:30.688Z,15.77
2022-10-24T15:23:59.287Z,15.77
2022-10-24T15:26:39.345Z,15.80
2022-10-24T15:29:20.374Z,15.80
2022-10-24T15:31:49.546Z,15.84
2022-10-24T15:34:19.062Z,15.84
2022-10-24T15:36:47.784Z,15.83
2022-10-24T15:39:17.618Z,15.82
2022-10-24T15:41:44.141Z,15.77
2022-10-24T15:44:17.785Z,15.75
2022-10-24T15:46:45.716Z,15.72
2022-10-24T15:49:12.612Z,15.74
2022-10-24T15:51:44.510Z,15.73
2022-10-24T15:54:16.402Z,15.68
2022-10-24T15:56:43.255Z,15.64
2022-10-24T15:59:09.678Z,15.58
2022-10-24T16:01:40.657Z,15.51
2022-10-24T16:04:09.183Z,15.46
2022-10-24T16:06:36.009Z,15.39
2022-10-24T16:09:03.817Z,15.36
2022-10-24T16:11:30.944Z,15.31
2022-10-24T16:13:57.957Z,15.25
2022-10-24T16:16:25.650Z,15.19
2022-10-24T16:18:52.127Z,15.15
2022-10-24T16:21:20.742Z,15.09
2022-10-24T16:23:48.423Z,15.06
2022-10-24T16:26:15.691Z,15.02
2022-10-24T16:28:42.233Z,14.96
2022-10-24T16:31:09.429Z,14.93
2022-10-24T16:33:35.971Z,14.88
2022-10-24T16:36:02.396Z,14.83
2022-10-24T16:38:28.965Z,14.78
2022-10-24T16:40:55.472Z,14.75
2022-10-24T16:43:21.906Z,14.73
2022-10-24T16:45:56.971Z,14.70
2022-10-24T16:48:23.726Z,14.68
2022-10-24T16:50:50.206Z,14.65
2022-10-24T16:53:18.405Z,14.60
2022-10-24T16:55:49.417Z,14.57
2022-10-24T16:58:17.249Z,14.53
2022-10-24T17:00:44.124Z,14.51
2022-10-24T17:03:11.365Z,14.44
2022-10-24T17:05:38.426Z,14.41
2022-10-24T17:08:05.780Z,14.37
2022-10-24T17:10:32.402Z,14.35
2022-10-24T17:13:00.988Z,14.32
2022-10-24T17:15:27.842Z,14.29
2022-10-24T17:17:54.293Z,14.25
2022-10-24T17:20:20.919Z,14.22
2022-10-24T17:22:47.895Z,14.21
2022-10-24T17:25:26.126Z,14.18
2022-10-24T17:27:53.982Z,14.12
2022-10-24T17:30:24.342Z,14.08
2022-10-24T17:32:50.919Z,14.06
2022-10-24T17:35:20.622Z,14.02
2022-10-24T17:38:04.997Z,13.98
2022-10-24T17:40:40.776Z,13.94
2022-10-24T17:43:18.233Z,13.90
2022-10-24T17:45:45.007Z,13.85
2022-10-24T17:48:11.741Z,13.80
2022-10-24T17:50:38.448Z,13.76
2022-10-24T17:53:04.981Z,13.72
2022-10-24T17:55:45.734Z,13.67
2022-10-24T17:58:13.939Z,13.64
2022-10-24T18:00:40.496Z,13.61
2022-10-24T18:03:08.709Z,13.57
2022-10-24T18:05:38.152Z,13.54
2022-10-24T18:08:07.433Z,13.54
2022-10-24T18:10:34.400Z,13.54
2022-10-24T18:13:01.829Z,13.56
2022-10-24T18:15:28.514Z,13.56
2022-10-24T18:17:55.040Z,13.60
2022-10-24T18:20:21.450Z,13.60
2022-10-24T18:22:48.373Z,13.61
2022-10-24T18:25:18.764Z,13.59
2022-10-24T18:27:48.449Z,13.57
2022-10-24T18:30:15.307Z,13.60
2022-10-24T18:32:41.813Z,13.63
2022-10-24T18:35:08.597Z,13.66
2022-10-24T18:37:35.803Z,13.70
2022-10-24T18:40:04.305Z,13.72
2022-10-24T18:42:50.824Z,13.71
2022-10-24T18:45:21.086Z,13.73
2022-10-24T18:47:48.660Z,13.75
2022-10-24T18:50:18.837Z,13.75
2022-10-24T18:53:06.619Z,13.73
2022-10-24T18:55:34.624Z,13.70
2022-10-24T18:58:01.446Z,13.70
2022-10-24T19:00:31.170Z,13.71
2022-10-24T19:03:19.231Z,13.70
2022-10-24T19:06:09.730Z,13.72
2022-10-24T19:08:36.310Z,13.71
2022-10-24T19:11:02.969Z,13.73
2022-10-24T19:13:30.688Z,13.71
2022-10-24T19:16:00.453Z,13.70
2022-10-24T19:18:30.971Z,13.66
2022-10-24T19:20:58.678Z,13.61
2022-10-24T19:23:25.452Z,13.57
2022-10-24T19:25:52.847Z,13.53
2022-10-24T19:28:20.429Z,13.53
2022-10-24T19:30:47.641Z,13.49
2022-10-24T19:33:15.093Z,13.46
2022-10-24T19:35:46.928Z,13.43
2022-10-24T19:38:18.252Z,13.40
2022-10-24T19:40:52.754Z,13.36
2022-10-24T19:43:20.591Z,13.33
2022-10-24T19:45:54.887Z,13.29
2022-10-24T19:48:22.948Z,13.27
2022-10-24T19:50:49.892Z,13.24
2022-10-24T19:53:16.459Z,13.20
2022-10-24T19:55:43.845Z,13.19
2022-10-24T19:58:20.112Z,13.13
2022-10-24T20:00:46.930Z,13.11
2022-10-24T20:03:14.135Z,13.08
2022-10-24T20:05:42.317Z,13.06
2022-10-24T20:08:08.746Z,13.05
2022-10-24T20:10:35.354Z,13.01
2022-10-24T20:13:01.736Z,12.98
2022-10-24T20:15:28.393Z,12.97
2022-10-24T20:17:54.891Z,12.93
2022-10-24T20:20:21.300Z,12.90
2022-10-24T20:22:47.972Z,12.89
2022-10-24T20:25:14.710Z,12.86
2022-10-24T20:27:41.333Z,12.82
2022-10-24T20:30:08.747Z,12.81
2022-10-24T20:32:35.328Z,12.81
2022-10-24T20:35:01.745Z,12.80
2022-10-24T20:37:28.287Z,12.82
2022-10-24T20:39:54.692Z,12.82
2022-10-24T20:42:22.262Z,12.81
2022-10-24T20:44:48.708Z,12.81
2022-10-24T20:47:15.176Z,12.82
2022-10-24T20:49:41.624Z,12.80
2022-10-24T20:52:08.071Z,12.80
2022-10-24T20:54:34.549Z,12.79
2022-10-24T20:57:01.035Z,12.78
2022-10-24T20:59:27.573Z,12.77
2022-10-24T21:01:54.071Z,12.77
2022-10-24T21:04:21.007Z,12.74
2022-10-24T21:06:47.683Z,12.76
2022-10-24T21:09:15.091Z,12.74
2022-10-24T21:11:41.648Z,12.74
2022-10-24T21:14:11.875Z,12.74
2022-10-24T21:16:38.365Z,12.75
2022-10-24T21:19:05.205Z,12.78
2022-10-24T21:21:31.785Z,12.79
2022-10-24T21:24:04.506Z,12.80
2022-10-24T21:26:38.619Z,12.81
2022-10-24T21:29:31.253Z,12.82
2022-10-24T21:31:52.557Z,12.80
2022-10-24T21:34:19.669Z,12.79
2022-10-24T21:36:46.743Z,12.79
2022-10-24T21:39:15.287Z,12.77
2022-10-24T21:41:42.229Z,12.74
2022-10-24T21:44:08.893Z,12.71
2022-10-24T21:46:35.439Z,12.69
2022-10-24T21:49:01.870Z,12.65
2022-10-24T21:51:32.768Z,12.63
2022-10-24T21:54:04.860Z,12.61
2022-10-24T21:56:34.044Z,12.59
2022-10-24T22:01:37.068Z,12.54
2022-10-24T22:04:05.108Z,12.53
2022-10-24T22:06:32.690Z,12.51
2022-10-24T22:08:59.205Z,12.49
2022-10-24T22:11:28.428Z,12.49
2022-10-24T22:13:55.486Z,12.49
2022-10-24T22:16:25.059Z,12.48
2022-10-24T22:18:52.692Z,12.46
2022-10-24T22:21:30.172Z,12.46
2022-10-24T22:23:58.500Z,12.46
2022-10-24T22:26:25.167Z,12.42
2022-10-24T22:28:52.360Z,12.42
2022-10-24T22:31:19.054Z,12.42
2022-10-24T22:33:45.630Z,12.42
2022-10-24T22:36:49.680Z,12.44
2022-10-24T22:39:18.915Z,12.43
2022-10-24T22:41:46.632Z,12.42
2022-10-24T22:44:15.446Z,12.41
2022-10-24T22:47:00.366Z,12.40
2022-10-24T22:49:55.278Z,12.40
2022-10-24T22:52:22.177Z,12.40
2022-10-24T22:54:48.856Z,12.38
2022-10-24T22:57:15.739Z,12.35
2022-10-24T22:59:42.633Z,12.35
2022-10-24T23:02:12.212Z,12.34
2022-10-24T23:05:11.128Z,12.32
2022-10-24T23:07:51.750Z,12.31
2022-10-24T23:10:23.139Z,12.29
2022-10-24T23:12:50.419Z,12.28
2022-10-24T23:15:19.325Z,12.28
2022-10-24T23:17:46.512Z,12.29
2022-10-24T23:20:26.264Z,12.30
2022-10-24T23:23:08.903Z,12.33
2022-10-24T23:25:51.070Z,12.37
2022-10-24T23:28:33.644Z,12.42
2022-10-24T23:31:00.395Z,12.46
2022-10-24T23:33:29.268Z,12.50
2022-10-24T23:35:59.165Z,12.54
2022-10-24T23:38:26.498Z,12.57
2022-10-24T23:40:53.399Z,12.60
2022-10-24T23:43:20.984Z,12.62
2022-10-24T23:45:59.048Z,12.66
2022-10-24T23:48:42.681Z,12.69
2022-10-24T23:51:13.609Z,12.72
2022-10-24T23:53:55.128Z,12.73
2022-10-24T23:56:26.858Z,12.76
2022-10-24T23:58:53.552Z,12.77
